Time;durP1;ratioP1;P1;durP2;ratioP2;P2;SDS_P1;SDS_P2;PMS_P1;PMS_P2;Temp;Humidity;BMP_temperature;BMP_pressure;BME280_temperature;BME280_humidity;BME280_pressure;Samples;Min_cycle;Max_cycle;Signal;HPM_P1;HPM_P2
2024/03/21 00:01:33;;;;;;;27.98;22.05;;;11.20;99.90;;;;;;4981803;28;20030;-51
2024/03/21 00:03:59;;;;;;;30.95;22.05;;;11.10;99.90;;;;;;4949731;28;20519;-53
2024/03/21 00:06:25;;;;;;;32.75;23.42;;;11.20;99.90;;;;;;4945993;28;20597;-52
2024/03/21 00:08:51;;;;;;;28.17;21.33;;;11.20;99.90;;;;;;4979245;28;20050;-57
2024/03/21 00:11:16;;;;;;;27.80;20.95;;;11.20;99.90;;;;;;4986615;28;20169;-51
2024/03/21 00:13:42;;;;;;;26.17;20.75;;;11.10;99.90;;;;;;4976149;28;20161;-47
2024/03/21 00:16:07;;;;;;;30.77;21.75;;;11.10;99.90;;;;;;4967820;28;20033;-50
2024/03/21 00:18:33;;;;;;;28.90;21.52;;;11.10;99.90;;;;;;4951117;28;20022;-48
2024/03/21 00:20:59;;;;;;;31.55;21.58;;;11.00;99.90;;;;;;4969307;28;20096;-53
2024/03/21 00:23:25;;;;;;;28.48;20.90;;;11.00;99.90;;;;;;4983576;28;20030;-54
2024/03/21 00:25:51;;;;;;;26.55;21.85;;;11.00;99.90;;;;;;4974818;28;20022;-51
2024/03/21 00:28:17;;;;;;;30.33;21.88;;;11.00;99.90;;;;;;4973195;28;20022;-53
2024/03/21 00:30:44;;;;;;;29.17;21.27;;;11.00;99.90;;;;;;4919236;28;20674;-54
2024/03/21 00:33:10;;;;;;;31.08;20.60;;;11.00;99.90;;;;;;4927317;28;22478;-54
2024/03/21 00:35:36;;;;;;;30.45;22.40;;;11.00;99.90;;;;;;4986565;28;20482;-54
2024/03/21 00:38:02;;;;;;;31.75;23.20;;;11.00;99.90;;;;;;4950715;28;20036;-57
2024/03/21 00:40:27;;;;;;;29.42;22.17;;;11.00;99.90;;;;;;4950504;28;20061;-48
2024/03/21 00:42:53;;;;;;;30.80;22.00;;;11.00;99.90;;;;;;4950749;28;20056;-55
2024/03/21 00:45:19;;;;;;;29.65;21.65;;;11.00;99.90;;;;;;4955910;28;20537;-51
2024/03/21 00:47:44;;;;;;;27.20;21.02;;;10.90;99.90;;;;;;4952098;28;20037;-51
2024/03/21 00:50:10;;;;;;;27.60;21.45;;;10.90;99.90;;;;;;4930604;28;20041;-49
2024/03/21 00:52:35;;;;;;;27.08;21.17;;;10.90;99.90;;;;;;4966018;28;20025;-51
2024/03/21 00:55:01;;;;;;;29.70;21.63;;;10.90;99.90;;;;;;4955755;28;20108;-52
2024/03/21 00:57:27;;;;;;;27.45;19.23;;;10.90;99.90;;;;;;4958315;28;20022;-49
2024/03/21 00:59:53;;;;;;;25.35;20.10;;;10.90;99.90;;;;;;4937027;28;20057;-58
2024/03/21 01:02:19;;;;;;;25.52;18.63;;;10.90;99.90;;;;;;4979489;28;21527;-50
2024/03/21 01:04:50;;;;;;;29.45;20.83;;;10.80;99.90;;;;;;4961990;28;20026;-52
2024/03/21 01:07:17;;;;;;;26.15;20.42;;;10.90;99.90;;;;;;4951890;28;20044;-57
2024/03/21 01:09:44;;;;;;;28.30;21.60;;;10.90;99.90;;;;;;4951691;28;20025;-53
2024/03/21 01:12:10;;;;;;;27.55;20.00;;;10.80;99.90;;;;;;4915700;28;21641;-53
2024/03/21 01:14:35;;;;;;;25.50;19.02;;;10.80;99.90;;;;;;4966184;28;20030;-53
2024/03/21 01:17:01;;;;;;;23.77;18.08;;;10.80;99.90;;;;;;4943677;28;20076;-60
2024/03/21 01:19:27;;;;;;;24.58;17.73;;;10.80;99.90;;;;;;4934905;28;20030;-51
2024/03/21 01:21:52;;;;;;;21.80;16.50;;;10.80;99.90;;;;;;4968849;28;20026;-51
2024/03/21 01:24:18;;;;;;;23.98;17.40;;;10.80;99.90;;;;;;4948568;28;20038;-54
2024/03/21 01:26:43;;;;;;;23.80;16.83;;;10.70;99.90;;;;;;4963272;28;20411;-49
2024/03/21 01:29:09;;;;;;;22.73;17.77;;;10.70;99.90;;;;;;4943428;28;20034;-50
2024/03/21 01:31:34;;;;;;;22.00;16.20;;;10.70;99.90;;;;;;4951186;28;20544;-51
2024/03/21 01:34:01;;;;;;;22.15;16.90;;;10.70;99.90;;;;;;4963339;28;20512;-52
2024/03/21 01:36:27;;;;;;;21.27;16.40;;;10.70;99.90;;;;;;4911836;28;20478;-51
2024/03/21 01:38:53;;;;;;;21.98;17.63;;;10.70;99.90;;;;;;4911421;28;20140;-59
2024/03/21 01:41:19;;;;;;;23.23;16.75;;;10.70;99.90;;;;;;4924830;28;21284;-52
2024/03/21 01:43:44;;;;;;;20.67;15.95;;;10.70;99.90;;;;;;4956075;28;21881;-51
2024/03/21 01:46:18;;;;;;;19.90;15.98;;;10.70;99.90;;;;;;4966577;28;20037;-50
2024/03/21 01:48:48;;;;;;;25.50;16.10;;;10.60;99.90;;;;;;4901178;28;20585;-50
2024/03/21 01:51:17;;;;;;;23.48;16.95;;;10.60;99.90;;;;;;4910577;28;20049;-48
2024/03/21 01:53:44;;;;;;;19.73;16.13;;;10.60;99.90;;;;;;4925679;28;20017;-52
2024/03/21 01:56:09;;;;;;;20.67;16.00;;;10.60;99.90;;;;;;4937100;28;20033;-53
2024/03/21 01:58:35;;;;;;;23.52;16.13;;;10.60;99.90;;;;;;4937261;28;20465;-51
2024/03/21 02:01:29;;;;;;;22.98;17.00;;;10.60;99.90;;;;;;4965878;28;20066;-52
2024/03/21 02:03:57;;;;;;;22.27;15.15;;;10.60;99.90;;;;;;4915045;28;20026;-52
2024/03/21 02:06:24;;;;;;;21.67;14.40;;;10.60;99.90;;;;;;4921655;28;20409;-52
2024/03/21 02:08:52;;;;;;;23.63;15.88;;;10.60;99.90;;;;;;4959222;28;20053;-58
2024/03/21 02:11:18;;;;;;;23.02;14.85;;;10.60;99.90;;;;;;4922267;28;20072;-55
2024/03/21 02:13:46;;;;;;;19.58;13.90;;;10.50;99.90;;;;;;4939820;28;20045;-51
2024/03/21 02:16:12;;;;;;;22.55;14.90;;;10.50;99.90;;;;;;4956106;28;20033;-51
2024/03/21 02:18:38;;;;;;;22.73;15.40;;;10.50;99.90;;;;;;4946528;28;20026;-54
2024/03/21 02:21:06;;;;;;;23.65;15.32;;;10.50;99.90;;;;;;4906305;28;20033;-52
2024/03/21 02:23:32;;;;;;;25.65;15.90;;;10.50;99.90;;;;;;4963245;28;20153;-51
2024/03/21 02:25:58;;;;;;;25.58;16.33;;;10.50;99.90;;;;;;4943095;28;20474;-53
2024/03/21 02:28:25;;;;;;;21.17;15.32;;;10.50;99.90;;;;;;4939550;28;20052;-59
2024/03/21 02:30:52;;;;;;;21.00;14.73;;;10.50;99.90;;;;;;4920419;28;20036;-51
2024/03/21 02:33:19;;;;;;;23.35;16.25;;;10.60;99.90;;;;;;4941585;28;20522;-52
2024/03/21 02:35:44;;;;;;;21.20;13.73;;;10.60;99.90;;;;;;4921776;28;20025;-54
2024/03/21 02:38:10;;;;;;;21.45;15.30;;;10.60;99.90;;;;;;4928818;28;20088;-50
2024/03/21 02:40:35;;;;;;;20.70;14.20;;;10.60;99.90;;;;;;4927852;28;20037;-51
2024/03/21 02:43:02;;;;;;;24.15;15.60;;;10.60;99.90;;;;;;4949180;28;20036;-53
2024/03/21 02:45:27;;;;;;;20.13;14.30;;;10.60;99.90;;;;;;4909510;28;20068;-55
2024/03/21 02:47:53;;;;;;;20.30;13.93;;;10.60;99.90;;;;;;4926976;28;20042;-57
2024/03/21 02:50:18;;;;;;;18.42;14.60;;;10.60;99.90;;;;;;4934856;28;21134;-54
2024/03/21 02:52:44;;;;;;;19.40;13.52;;;10.60;99.90;;;;;;4924054;28;22285;-52
2024/03/21 02:55:09;;;;;;;23.25;13.82;;;10.60;99.90;;;;;;4947863;28;20453;-53
2024/03/21 02:57:35;;;;;;;21.02;12.82;;;10.60;99.90;;;;;;4919170;28;20021;-53
2024/03/21 03:00:01;;;;;;;17.08;13.52;;;10.60;99.90;;;;;;4873536;28;20460;-55
2024/03/21 03:02:27;;;;;;;17.85;12.77;;;10.50;99.90;;;;;;4953856;28;20478;-53
2024/03/21 03:04:53;;;;;;;19.25;12.45;;;10.60;99.90;;;;;;4924720;28;20053;-54
2024/03/21 03:07:18;;;;;;;26.52;13.27;;;10.50;99.90;;;;;;4945518;28;20601;-51
2024/03/21 03:09:44;;;;;;;19.10;13.38;;;10.50;99.90;;;;;;4904245;28;20510;-52
2024/03/21 03:12:09;;;;;;;21.15;13.40;;;10.50;99.90;;;;;;4869182;28;21772;-53
2024/03/21 03:14:35;;;;;;;15.65;11.40;;;10.50;99.90;;;;;;4949402;28;20030;-53
2024/03/21 03:17:01;;;;;;;18.52;12.57;;;10.50;99.90;;;;;;4910414;28;20736;-58
2024/03/21 03:19:28;;;;;;;17.77;13.23;;;10.50;99.90;;;;;;4905498;28;20053;-58
2024/03/21 03:21:53;;;;;;;18.55;12.63;;;10.50;99.90;;;;;;4969726;28;20022;-49
2024/03/21 03:24:19;;;;;;;21.88;14.65;;;10.60;99.90;;;;;;4911012;28;20038;-52
2024/03/21 03:26:44;;;;;;;20.67;14.55;;;10.50;99.90;;;;;;4955682;28;20040;-54
2024/03/21 03:29:10;;;;;;;20.25;14.85;;;10.60;99.90;;;;;;4911768;28;20034;-54
2024/03/21 03:31:36;;;;;;;20.75;14.73;;;10.60;99.90;;;;;;4910796;28;20026;-54
2024/03/21 03:36:45;;;;;;;22.05;14.50;;;10.60;99.90;;;;;;4924466;28;20029;-51
2024/03/21 03:39:12;;;;;;;21.13;13.90;;;10.60;99.90;;;;;;4903636;28;21208;-50
2024/03/21 03:41:37;;;;;;;22.05;15.30;;;10.60;99.90;;;;;;4955915;28;20544;-53
2024/03/21 03:44:04;;;;;;;23.17;14.80;;;10.60;99.90;;;;;;4920696;28;20030;-51
2024/03/21 03:46:29;;;;;;;24.05;15.23;;;10.60;99.90;;;;;;4911202;28;20105;-58
2024/03/21 03:48:55;;;;;;;22.45;14.95;;;10.60;99.90;;;;;;4972431;28;20048;-54
2024/03/21 03:51:20;;;;;;;20.33;13.52;;;10.70;99.90;;;;;;4910686;28;20044;-54
2024/03/21 03:53:46;;;;;;;22.50;14.60;;;10.70;99.90;;;;;;4951297;28;20113;-56
2024/03/21 03:56:11;;;;;;;21.73;13.57;;;10.60;99.90;;;;;;4919153;28;20028;-53
2024/03/21 03:58:37;;;;;;;19.80;13.93;;;10.60;99.90;;;;;;4901518;28;20022;-53
2024/03/21 04:01:03;;;;;;;19.05;13.43;;;10.60;99.90;;;;;;4947636;28;20026;-51
2024/03/21 04:03:29;;;;;;;17.38;11.68;;;10.60;99.90;;;;;;4900182;28;20022;-49
2024/03/21 04:05:59;;;;;;;18.58;11.20;;;10.60;99.90;;;;;;4925281;28;20027;-59
2024/03/21 04:08:25;;;;;;;16.52;11.32;;;10.70;99.90;;;;;;4942357;28;20022;-52
2024/03/21 04:10:51;;;;;;;17.77;10.30;;;10.60;99.90;;;;;;4896539;28;21503;-54
2024/03/21 04:13:17;;;;;;;15.35;11.05;;;10.60;99.90;;;;;;4948528;28;20109;-54
2024/03/21 04:15:44;;;;;;;17.65;11.20;;;10.60;99.90;;;;;;4899767;28;20600;-51
2024/03/21 04:18:09;;;;;;;14.20;10.65;;;10.60;99.90;;;;;;4901213;28;20434;-52
2024/03/21 04:20:35;;;;;;;17.50;10.48;;;10.60;99.90;;;;;;4953043;28;20020;-53
2024/03/21 04:23:00;;;;;;;15.70;10.68;;;10.60;99.90;;;;;;4896662;28;20057;-53
2024/03/21 04:25:26;;;;;;;17.33;10.20;;;10.60;99.90;;;;;;4933276;28;20029;-58
2024/03/21 04:27:51;;;;;;;14.50;9.63;;;10.60;99.90;;;;;;4929422;28;20068;-51
2024/03/21 04:30:17;;;;;;;13.63;9.63;;;10.60;99.90;;;;;;4904334;28;20540;-52
2024/03/21 04:32:43;;;;;;;14.80;10.25;;;10.60;99.90;;;;;;4951437;28;20452;-54
2024/03/21 04:35:09;;;;;;;14.98;10.20;;;10.60;99.90;;;;;;4900553;28;20049;-53
2024/03/21 04:37:35;;;;;;;17.25;10.10;;;10.60;99.90;;;;;;4891780;28;20014;-52
2024/03/21 04:40:01;;;;;;;12.15;7.97;;;10.60;99.90;;;;;;4966307;28;20109;-52
2024/03/21 04:42:26;;;;;;;11.70;8.98;;;10.60;99.90;;;;;;4892171;28;20080;-52
2024/03/21 04:44:52;;;;;;;11.43;8.30;;;10.60;99.90;;;;;;4937727;28;20665;-58
2024/03/21 04:47:17;;;;;;;10.82;8.45;;;10.60;99.90;;;;;;4906044;28;20505;-49
2024/03/21 04:49:43;;;;;;;12.43;7.90;;;10.60;99.90;;;;;;4891549;28;20034;-52
2024/03/21 04:52:10;;;;;;;10.00;7.90;;;10.60;99.90;;;;;;4944445;28;20573;-52
2024/03/21 04:54:35;;;;;;;10.88;7.35;;;10.60;99.90;;;;;;4878370;28;20533;-52
2024/03/21 04:57:01;;;;;;;12.05;8.40;;;10.50;99.90;;;;;;4896578;28;20105;-58
2024/03/21 04:59:28;;;;;;;8.95;7.40;;;10.60;99.90;;;;;;4942613;28;20571;-52
2024/03/21 05:01:55;;;;;;;12.32;8.77;;;10.60;99.90;;;;;;4884052;28;20030;-51
2024/03/21 05:04:21;;;;;;;11.18;7.80;;;10.60;99.90;;;;;;4955206;28;20537;-57
2024/03/21 05:06:46;;;;;;;11.05;7.55;;;10.60;99.90;;;;;;4891860;28;20040;-52
2024/03/21 05:09:12;;;;;;;8.45;7.15;;;10.50;99.90;;;;;;4882349;28;21441;-55
2024/03/21 05:11:37;;;;;;;8.95;6.97;;;10.50;99.90;;;;;;4945515;28;20029;-54
2024/03/21 05:14:03;;;;;;;11.38;8.23;;;10.50;99.90;;;;;;4901331;28;20076;-54
2024/03/21 05:16:30;;;;;;;8.40;6.90;;;10.60;99.90;;;;;;4900727;28;20022;-58
2024/03/21 05:18:55;;;;;;;9.05;7.70;;;10.60;99.90;;;;;;4940139;28;20041;-54
2024/03/21 05:21:22;;;;;;;9.95;7.47;;;10.50;99.90;;;;;;4881573;28;21708;-55
2024/03/21 05:23:47;;;;;;;9.05;7.28;;;10.50;99.90;;;;;;4943120;28;20274;-55
2024/03/21 05:26:13;;;;;;;10.40;7.85;;;10.60;99.90;;;;;;4876438;28;20025;-51
2024/03/21 05:28:38;;;;;;;8.95;7.28;;;10.50;99.90;;;;;;4867236;28;20050;-55
2024/03/21 05:31:21;;;;;;;12.15;7.45;;;10.50;99.90;;;;;;4963197;28;20498;-52
2024/03/21 05:33:47;;;;;;;8.82;7.40;;;10.50;99.90;;;;;;4876297;28;20493;-53
2024/03/21 05:36:14;;;;;;;9.27;7.00;;;10.50;99.90;;;;;;4874839;28;21579;-52
2024/03/21 05:38:40;;;;;;;10.68;7.75;;;10.60;99.90;;;;;;4941775;28;20033;-52
2024/03/21 05:41:06;;;;;;;10.00;7.55;;;10.50;99.90;;;;;;4874823;28;20397;-51
2024/03/21 05:43:32;;;;;;;10.40;7.85;;;10.50;99.90;;;;;;4887690;28;20148;-58
2024/03/21 05:45:58;;;;;;;10.93;7.82;;;10.50;99.90;;;;;;4966338;28;20026;-56
2024/03/21 05:48:23;;;;;;;14.20;9.13;;;10.50;99.90;;;;;;4905786;28;21237;-53
2024/03/21 05:50:49;;;;;;;16.35;9.95;;;10.40;99.90;;;;;;4939396;28;20026;-53
2024/03/21 05:53:14;;;;;;;16.05;10.95;;;10.30;99.90;;;;;;4905070;28;20052;-55
2024/03/21 05:55:40;;;;;;;16.95;12.15;;;10.10;99.90;;;;;;4912072;28;20030;-55
2024/03/21 05:58:05;;;;;;;16.35;10.80;;;10.00;99.90;;;;;;4960300;28;20122;-52
2024/03/21 06:00:31;;;;;;;14.75;10.20;;;9.90;99.90;;;;;;4934398;28;20073;-49
2024/03/21 06:02:56;;;;;;;16.67;9.77;;;9.80;99.90;;;;;;4928692;28;20022;-52
2024/03/21 06:05:22;;;;;;;14.27;9.57;;;9.60;99.90;;;;;;4965314;28;20026;-55
2024/03/21 06:07:47;;;;;;;11.77;8.05;;;9.50;99.90;;;;;;4969794;28;20025;-50
2024/03/21 06:10:13;;;;;;;12.57;8.02;;;9.30;99.90;;;;;;4982461;28;20030;-52
2024/03/21 06:12:41;;;;;;;12.70;8.07;;;9.30;99.90;;;;;;4991515;28;20030;-53
2024/03/21 06:15:07;;;;;;;13.50;8.15;;;9.20;99.90;;;;;;4940958;28;20030;-52
2024/03/21 06:17:33;;;;;;;12.98;8.30;;;9.20;99.90;;;;;;4982111;28;20021;-55
2024/03/21 06:19:58;;;;;;;11.95;7.00;;;9.20;99.90;;;;;;4950976;28;20026;-52
2024/03/21 06:22:24;;;;;;;8.57;7.50;;;9.20;99.90;;;;;;4944670;28;20053;-55
2024/03/21 06:24:49;;;;;;;9.40;7.50;;;9.20;99.90;;;;;;4962668;28;20044;-50
2024/03/21 06:27:15;;;;;;;9.75;7.00;;;9.20;99.90;;;;;;4955904;28;20375;-54
2024/03/21 06:29:40;;;;;;;10.30;7.18;;;9.00;99.90;;;;;;4978102;28;21462;-55
2024/03/21 06:32:06;;;;;;;10.52;6.95;;;8.90;99.90;;;;;;4958589;28;20045;-52
2024/03/21 06:34:32;;;;;;;10.93;6.88;;;8.90;99.90;;;;;;4950279;28;20026;-53
2024/03/21 06:36:57;;;;;;;7.82;6.20;;;8.90;99.90;;;;;;4970289;28;20105;-52
2024/03/21 06:39:23;;;;;;;10.90;7.38;;;8.80;99.90;;;;;;4971947;28;20085;-53
2024/03/21 06:41:49;;;;;;;12.00;8.05;;;8.80;99.90;;;;;;4970662;28;20033;-53
2024/03/21 06:44:14;;;;;;;10.43;7.53;;;8.70;99.90;;;;;;4945219;28;20049;-52
2024/03/21 06:46:40;;;;;;;14.57;7.90;;;8.70;99.90;;;;;;4926855;28;20025;-53
2024/03/21 06:49:07;;;;;;;9.13;7.20;;;8.60;99.90;;;;;;4927341;28;20029;-53
2024/03/21 06:51:32;;;;;;;11.80;7.70;;;8.60;99.90;;;;;;4957188;28;20022;-53
2024/03/21 06:53:58;;;;;;;10.45;8.13;;;8.60;99.90;;;;;;4970467;28;20029;-49
2024/03/21 06:56:23;;;;;;;9.20;6.80;;;8.60;99.90;;;;;;4937784;28;20087;-57
2024/03/21 06:58:52;;;;;;;9.77;6.70;;;8.60;99.90;;;;;;4940096;28;20096;-54
2024/03/21 07:01:18;;;;;;;8.27;6.95;;;8.60;99.90;;;;;;4945392;28;20026;-54
2024/03/21 07:03:44;;;;;;;9.95;7.63;;;8.60;99.90;;;;;;4973272;28;20135;-54
2024/03/21 07:06:09;;;;;;;8.90;7.05;;;8.60;99.90;;;;;;4921785;28;20113;-53
2024/03/21 07:08:35;;;;;;;8.85;6.88;;;8.60;99.90;;;;;;4966141;28;20057;-54
2024/03/21 07:11:01;;;;;;;11.45;8.02;;;8.60;99.90;;;;;;4956554;28;20062;-52
2024/03/21 07:13:26;;;;;;;11.85;7.90;;;8.70;99.90;;;;;;4958446;28;20117;-51
2024/03/21 07:15:52;;;;;;;12.30;7.60;;;8.70;99.90;;;;;;4920622;28;20034;-59
2024/03/21 07:18:17;;;;;;;9.48;7.45;;;8.70;99.90;;;;;;4963825;28;20034;-55
2024/03/21 07:20:43;;;;;;;10.77;8.10;;;8.70;99.90;;;;;;4961707;28;21635;-53
2024/03/21 07:23:09;;;;;;;9.77;7.43;;;8.70;99.90;;;;;;4983012;28;20105;-54
2024/03/21 07:25:35;;;;;;;8.90;7.43;;;8.70;99.90;;;;;;4935226;28;20049;-53
2024/03/21 07:28:04;;;;;;;9.00;7.15;;;8.70;99.90;;;;;;4930699;28;20045;-52
2024/03/21 07:30:30;;;;;;;12.18;8.00;;;8.60;99.90;;;;;;4965473;28;20026;-56
2024/03/21 07:32:55;;;;;;;10.65;8.52;;;8.60;99.90;;;;;;4959566;28;20022;-50
2024/03/21 07:35:21;;;;;;;10.75;7.63;;;8.70;99.90;;;;;;4962163;28;20037;-59
2024/03/21 07:37:47;;;;;;;10.82;7.82;;;8.70;99.90;;;;;;4913657;28;20025;-52
2024/03/21 07:40:13;;;;;;;11.20;7.70;;;8.70;99.90;;;;;;4922345;28;20772;-55
2024/03/21 07:42:38;;;;;;;9.50;7.38;;;8.70;99.90;;;;;;4967540;28;20030;-53
2024/03/21 07:45:08;;;;;;;10.90;6.18;;;8.70;99.90;;;;;;4921796;28;20056;-57
2024/03/21 07:47:34;;;;;;;8.63;6.72;;;8.60;99.90;;;;;;4961805;28;20029;-54
2024/03/21 07:50:00;;;;;;;10.63;5.85;;;8.60;99.90;;;;;;4935703;28;20536;-55
2024/03/21 07:52:25;;;;;;;9.02;5.70;;;8.50;99.90;;;;;;4931777;28;20026;-55
2024/03/21 07:54:51;;;;;;;12.32;6.85;;;8.60;99.90;;;;;;4967325;28;20112;-58
2024/03/21 07:57:18;;;;;;;8.45;5.78;;;8.50;99.90;;;;;;4939932;28;20061;-55
2024/03/21 07:59:44;;;;;;;8.55;5.43;;;8.50;99.90;;;;;;4954943;28;22086;-51
2024/03/21 08:02:09;;;;;;;10.48;5.55;;;8.50;99.90;;;;;;4945684;28;20113;-54
2024/03/21 08:04:35;;;;;;;7.38;4.68;;;8.50;99.90;;;;;;4950395;28;20175;-54
2024/03/21 08:07:00;;;;;;;6.90;4.68;;;8.40;99.90;;;;;;4938358;28;20041;-51
2024/03/21 08:09:26;;;;;;;7.88;4.75;;;8.40;99.90;;;;;;4949583;28;20061;-52
2024/03/21 08:11:52;;;;;;;8.07;4.95;;;8.50;99.90;;;;;;4951489;28;20699;-52
2024/03/21 08:14:18;;;;;;;5.07;4.45;;;8.50;99.90;;;;;;4954402;28;20034;-54
2024/03/21 08:16:44;;;;;;;6.57;4.90;;;8.50;99.90;;;;;;4919336;28;20030;-53
2024/03/21 08:19:09;;;;;;;10.63;4.53;;;8.50;99.90;;;;;;4926109;28;20087;-49
2024/03/21 08:21:35;;;;;;;7.72;4.53;;;8.50;99.90;;;;;;4942487;28;20037;-52
2024/03/21 08:24:00;;;;;;;8.15;4.38;;;8.50;99.90;;;;;;4947765;28;20524;-59
2024/03/21 08:26:26;;;;;;;9.00;5.57;;;8.60;99.90;;;;;;4918738;28;20533;-58
2024/03/21 08:28:51;;;;;;;8.70;4.95;;;8.60;99.90;;;;;;4956676;28;20034;-53
2024/03/21 08:31:17;;;;;;;9.48;5.10;;;8.70;99.90;;;;;;4919954;28;20133;-51
2024/03/21 08:33:43;;;;;;;10.60;5.30;;;8.80;99.90;;;;;;4969059;28;20097;-53
2024/03/21 08:36:08;;;;;;;13.77;5.88;;;8.80;99.90;;;;;;4930647;28;20030;-56
2024/03/21 08:38:34;;;;;;;10.82;5.40;;;8.90;99.90;;;;;;4943296;28;20489;-53
2024/03/21 08:40:59;;;;;;;8.52;5.45;;;8.90;99.90;;;;;;4911287;28;20034;-51
2024/03/21 08:43:25;;;;;;;12.05;6.38;;;9.00;99.90;;;;;;4915153;28;20553;-54
2024/03/21 08:45:53;;;;;;;9.07;6.60;;;9.00;99.90;;;;;;4960185;28;20044;-59
2024/03/21 08:48:19;;;;;;;8.15;5.90;;;9.10;99.90;;;;;;4933015;28;20048;-53
2024/03/21 08:50:47;;;;;;;11.23;5.97;;;9.10;99.90;;;;;;4940620;28;22274;-49
2024/03/21 08:53:15;;;;;;;10.68;5.97;;;9.20;99.90;;;;;;4961830;28;20088;-49
2024/03/21 08:55:40;;;;;;;10.75;6.18;;;9.20;99.90;;;;;;4875677;28;20034;-50
2024/03/21 08:58:06;;;;;;;9.13;5.97;;;9.20;99.90;;;;;;4911361;28;20021;-53
2024/03/21 09:00:32;;;;;;;12.15;7.18;;;9.30;99.90;;;;;;4949620;28;20037;-52
2024/03/21 09:02:59;;;;;;;8.32;5.57;;;9.30;99.90;;;;;;4934938;28;20038;-52
2024/03/21 09:05:25;;;;;;;12.80;6.82;;;9.40;99.90;;;;;;4897094;28;20125;-59
2024/03/21 09:07:51;;;;;;;8.98;6.25;;;9.50;99.90;;;;;;4939855;28;20036;-54
2024/03/21 09:10:16;;;;;;;14.73;7.65;;;9.50;99.90;;;;;;4918945;28;20071;-54
2024/03/21 09:12:42;;;;;;;10.57;6.50;;;9.60;99.90;;;;;;4930633;28;20615;-55
2024/03/21 09:15:10;;;;;;;9.52;7.18;;;9.50;99.90;;;;;;4900288;28;20030;-54
2024/03/21 09:17:36;;;;;;;12.45;6.68;;;9.50;99.90;;;;;;4929093;28;20038;-54
2024/03/21 09:20:02;;;;;;;11.25;6.07;;;9.50;99.90;;;;;;4908140;28;20430;-51
2024/03/21 09:22:27;;;;;;;8.32;6.68;;;9.60;99.90;;;;;;4865202;28;20462;-55
2024/03/21 09:24:53;;;;;;;11.60;6.47;;;9.60;99.90;;;;;;4932067;28;20045;-59
2024/03/21 09:27:19;;;;;;;9.95;6.90;;;9.60;99.90;;;;;;4908804;28;20100;-53
2024/03/21 09:29:46;;;;;;;10.40;6.70;;;9.60;99.90;;;;;;4928205;28;21291;-52
2024/03/21 09:32:11;;;;;;;14.27;6.38;;;9.60;99.90;;;;;;4939860;28;20034;-53
2024/03/21 09:34:37;;;;;;;8.98;6.30;;;9.60;99.90;;;;;;4913269;28;20024;-50
2024/03/21 09:37:03;;;;;;;10.10;6.80;;;9.60;99.90;;;;;;4939166;28;20018;-52
2024/03/21 09:39:28;;;;;;;9.95;6.10;;;9.70;99.90;;;;;;4969660;28;20084;-54
2024/03/21 09:41:57;;;;;;;6.03;5.43;;;9.70;99.90;;;;;;4980712;28;20068;-55
2024/03/21 09:44:23;;;;;;;6.60;5.45;;;9.60;99.90;;;;;;4963303;28;20026;-56
2024/03/21 09:46:50;;;;;;;7.65;6.13;;;9.70;99.90;;;;;;4954448;28;20445;-51
2024/03/21 09:49:16;;;;;;;10.10;5.80;;;9.70;99.90;;;;;;4979477;28;20096;-49
2024/03/21 09:51:42;;;;;;;4.28;3.45;;;9.80;99.90;;;;;;4985935;28;20034;-53
2024/03/21 09:54:12;;;;;;;4.35;3.88;;;9.80;99.90;;;;;;4963191;28;20029;-59
2024/03/21 09:56:38;;;;;;;3.38;2.70;;;9.80;99.90;;;;;;4972432;28;20394;-49
2024/03/21 09:59:13;;;;;;;3.55;2.65;;;9.90;99.90;;;;;;4968652;28;20026;-49
2024/03/21 10:01:39;;;;;;;4.60;2.60;;;9.90;99.90;;;;;;4974073;28;20676;-51
2024/03/21 10:04:04;;;;;;;3.63;2.38;;;9.90;99.90;;;;;;4976253;28;20113;-54
2024/03/21 10:06:41;;;;;;;2.75;2.35;;;9.90;99.90;;;;;;4993988;28;20025;-54
2024/03/21 10:09:07;;;;;;;2.30;2.10;;;9.90;99.90;;;;;;4975293;28;20036;-55
2024/03/21 10:11:35;;;;;;;3.45;2.60;;;10.00;99.90;;;;;;4974721;28;20044;-53
2024/03/21 10:14:00;;;;;;;4.53;2.30;;;10.00;99.90;;;;;;4990744;28;20030;-53
2024/03/21 10:16:28;;;;;;;3.60;2.22;;;10.00;99.90;;;;;;4975044;28;20029;-58
2024/03/21 10:18:54;;;;;;;3.30;2.40;;;10.00;99.90;;;;;;4984502;28;20108;-55
2024/03/21 10:21:22;;;;;;;2.83;2.35;;;10.00;99.90;;;;;;4978818;28;20120;-49
2024/03/21 10:23:47;;;;;;;2.90;1.92;;;10.00;99.90;;;;;;4970631;28;20072;-53
2024/03/21 10:26:17;;;;;;;3.40;2.20;;;10.00;99.90;;;;;;4987045;28;20471;-51
2024/03/21 10:28:44;;;;;;;3.10;2.58;;;10.00;99.90;;;;;;4968714;28;20022;-51
2024/03/21 10:31:14;;;;;;;3.17;2.88;;;9.90;99.90;;;;;;4973373;28;20600;-54
2024/03/21 10:33:40;;;;;;;4.47;3.40;;;9.80;99.90;;;;;;4989039;28;20053;-50
2024/03/21 10:36:10;;;;;;;4.07;3.22;;;9.80;99.90;;;;;;4968578;28;20490;-53
2024/03/21 10:38:36;;;;;;;5.63;4.45;;;9.80;99.90;;;;;;4969929;28;20026;-54
2024/03/21 10:41:07;;;;;;;6.55;5.15;;;9.70;99.90;;;;;;4990666;28;20445;-53
2024/03/21 10:43:36;;;;;;;6.15;5.15;;;9.50;99.90;;;;;;4970814;28;20034;-54
2024/03/21 10:46:02;;;;;;;8.18;5.78;;;9.50;99.90;;;;;;4969742;28;20535;-52
2024/03/21 10:48:29;;;;;;;7.85;5.45;;;9.40;99.90;;;;;;4988849;28;20041;-53
2024/03/21 10:50:55;;;;;;;8.13;5.20;;;9.30;99.90;;;;;;4984457;28;20244;-53
2024/03/21 10:53:22;;;;;;;9.38;6.30;;;9.20;99.90;;;;;;4988368;28;20034;-52
2024/03/21 10:55:52;;;;;;;9.35;6.78;;;9.20;99.90;;;;;;4969906;28;20108;-53
2024/03/21 10:58:19;;;;;;;7.85;6.05;;;9.20;99.90;;;;;;4967238;28;20036;-54
2024/03/21 11:00:53;;;;;;;8.80;5.85;;;9.10;99.90;;;;;;4986910;28;20503;-49
2024/03/21 11:03:19;;;;;;;10.75;7.43;;;9.20;99.90;;;;;;4972152;28;20476;-52
2024/03/21 11:05:55;;;;;;;9.73;6.97;;;9.10;99.90;;;;;;4968820;28;20084;-52
2024/03/21 11:08:29;;;;;;;9.45;6.45;;;9.20;99.90;;;;;;4985138;28;20038;-53
2024/03/21 11:10:56;;;;;;;10.23;7.43;;;9.20;99.90;;;;;;4981118;28;20045;-53
2024/03/21 11:13:25;;;;;;;9.85;6.88;;;9.20;99.90;;;;;;4967084;28;20088;-55
2024/03/21 11:15:55;;;;;;;9.55;6.97;;;9.20;99.90;;;;;;4986075;28;20105;-59
2024/03/21 11:18:21;;;;;;;9.73;7.03;;;9.30;99.90;;;;;;4976780;28;20052;-53
2024/03/21 11:20:47;;;;;;;9.45;7.20;;;9.20;99.90;;;;;;4964199;28;20832;-53
2024/03/21 11:23:15;;;;;;;10.88;6.93;;;9.10;99.90;;;;;;4984501;28;20045;-49
2024/03/21 11:25:41;;;;;;;9.60;6.72;;;9.00;99.90;;;;;;4964748;28;20026;-51
2024/03/21 11:28:13;;;;;;;9.38;6.65;;;9.00;99.90;;;;;;4963408;28;20520;-50
2024/03/21 11:30:43;;;;;;;10.98;6.35;;;9.00;99.90;;;;;;4984717;28;20030;-50
2024/03/21 11:33:10;;;;;;;8.95;5.85;;;9.00;99.90;;;;;;4966863;28;20123;-50
2024/03/21 11:35:40;;;;;;;8.00;6.25;;;9.10;99.90;;;;;;4964812;28;20026;-53
2024/03/21 11:38:10;;;;;;;10.88;7.15;;;9.20;99.90;;;;;;4987481;28;20089;-48
2024/03/21 11:40:36;;;;;;;9.45;6.63;;;9.20;99.90;;;;;;4966010;28;20263;-51
2024/03/21 11:43:06;;;;;;;9.68;6.97;;;9.30;99.90;;;;;;4968932;28;20030;-51
2024/03/21 11:45:32;;;;;;;7.60;5.95;;;9.30;99.90;;;;;;4989822;28;20034;-51
2024/03/21 11:48:09;;;;;;;8.85;6.55;;;9.30;99.90;;;;;;4966831;28;20033;-52
2024/03/21 11:50:44;;;;;;;8.35;6.43;;;9.30;99.90;;;;;;4964735;28;20034;-55
2024/03/21 11:53:10;;;;;;;9.95;5.82;;;9.30;99.90;;;;;;4986761;28;20022;-48
2024/03/21 11:55:35;;;;;;;7.93;5.93;;;9.20;99.90;;;;;;4967349;28;20474;-49
2024/03/21 11:58:01;;;;;;;7.20;5.53;;;9.10;99.90;;;;;;4971188;28;20465;-53
2024/03/21 12:00:26;;;;;;;7.75;5.82;;;9.20;99.90;;;;;;4985190;28;20021;-51
2024/03/21 12:02:53;;;;;;;8.50;6.35;;;9.10;99.90;;;;;;4966049;28;20049;-52
2024/03/21 12:05:19;;;;;;;9.75;6.30;;;9.10;99.90;;;;;;4987385;28;20401;-52
2024/03/21 12:07:45;;;;;;;7.88;6.05;;;9.10;99.90;;;;;;4962325;28;20018;-52
2024/03/21 12:10:12;;;;;;;7.63;5.97;;;9.20;99.90;;;;;;4961843;28;20029;-54
2024/03/21 12:12:38;;;;;;;10.27;6.05;;;9.10;99.90;;;;;;4982550;28;20030;-51
2024/03/21 12:15:06;;;;;;;8.07;5.90;;;9.00;99.90;;;;;;4959500;28;20105;-48
2024/03/21 12:17:31;;;;;;;8.27;5.28;;;9.10;99.90;;;;;;4963419;28;20112;-57
2024/03/21 12:19:58;;;;;;;6.30;4.90;;;9.20;99.90;;;;;;4990953;28;20554;-53
2024/03/21 12:22:24;;;;;;;7.97;5.20;;;9.30;99.90;;;;;;4970348;28;20054;-47
2024/03/21 12:24:50;;;;;;;8.43;5.78;;;9.30;99.90;;;;;;4983140;28;20441;-51
2024/03/21 12:27:15;;;;;;;8.23;5.60;;;9.30;99.90;;;;;;4971560;28;20030;-50
2024/03/21 12:29:41;;;;;;;6.90;5.47;;;9.30;99.90;;;;;;4971265;28;21757;-53
2024/03/21 12:32:08;;;;;;;7.13;5.80;;;9.30;99.90;;;;;;4995851;28;20029;-49
2024/03/21 12:34:33;;;;;;;7.68;5.90;;;9.30;99.90;;;;;;4970473;28;20028;-53
2024/03/21 12:36:59;;;;;;;7.47;6.00;;;9.30;99.90;;;;;;4981117;28;20109;-48
2024/03/21 12:39:24;;;;;;;8.27;5.80;;;9.30;99.90;;;;;;4995820;28;20029;-48
2024/03/21 12:41:52;;;;;;;8.52;5.75;;;9.40;99.90;;;;;;4994649;28;20494;-53